Time;durP1;ratioP1;P1;durP2;ratioP2;P2;SDS_P1;SDS_P2;PMS_P1;PMS_P2;Temp;Humidity;BMP_temperature;BMP_pressure;BME280_temperature;BME280_humidity;BME280_pressure;Samples;Min_cycle;Max_cycle;Signal;HPM_P1;HPM_P2
2023/04/06 00:00:54;;;;;;;20.93;11.53;;;;;;;-145.18;100.00;60484.78;5015380;28;20057;-68
2023/04/06 00:03:19;;;;;;;19.00;11.27;;;;;;;-145.18;100.00;60484.78;5014797;28;20467;-69
2023/04/06 00:05:46;;;;;;;23.23;12.47;;;;;;;-145.18;100.00;60484.78;5015355;28;20038;-69
2023/04/06 00:08:12;;;;;;;23.50;12.67;;;;;;;-145.18;100.00;60484.78;5015231;28;20026;-69
2023/04/06 00:10:37;;;;;;;23.03;13.23;;;;;;;-145.18;100.00;60484.78;5014294;28;20327;-69
2023/04/06 00:13:05;;;;;;;22.77;12.57;;;;;;;-145.18;100.00;60484.78;5014975;28;20034;-68
2023/04/06 00:15:31;;;;;;;22.33;11.63;;;;;;;-145.18;100.00;60484.78;5014965;28;20042;-68
2023/04/06 00:17:56;;;;;;;19.03;10.67;;;;;;;-145.18;100.00;60484.78;5015076;28;20287;-71
2023/04/06 00:20:22;;;;;;;21.00;10.60;;;;;;;-145.18;100.00;60484.78;5014569;28;20034;-68
2023/04/06 00:22:48;;;;;;;18.07;9.63;;;;;;;-145.18;100.00;60484.78;5015013;28;20038;-68
2023/04/06 00:25:15;;;;;;;17.13;9.70;;;;;;;-145.18;100.00;60484.78;5014780;28;20029;-68
2023/04/06 00:27:40;;;;;;;19.27;9.70;;;;;;;-145.18;100.00;60484.78;5015024;28;20109;-68
2023/04/06 00:30:07;;;;;;;18.03;9.97;;;;;;;-145.18;100.00;60484.78;5014916;28;20480;-68
2023/04/06 00:32:34;;;;;;;17.10;9.57;;;;;;;-145.18;100.00;60484.78;5014223;28;20026;-68
2023/04/06 00:35:01;;;;;;;15.57;9.03;;;;;;;-145.18;100.00;60484.78;5014294;28;20105;-69
2023/04/06 00:37:27;;;;;;;18.80;9.57;;;;;;;-145.18;100.00;60484.78;5014684;28;20742;-69
2023/04/06 00:39:52;;;;;;;18.93;9.97;;;;;;;-145.18;100.00;60484.78;5007576;28;20295;-68
2023/04/06 00:42:24;;;;;;;19.43;10.13;;;;;;;-145.18;100.00;60484.78;5010462;28;20115;-68
2023/04/06 00:44:51;;;;;;;17.97;9.83;;;;;;;-145.18;100.00;60484.78;5022439;28;20037;-68
2023/04/06 00:47:16;;;;;;;16.77;9.73;;;;;;;-145.18;100.00;60484.78;5016951;28;20330;-68
2023/04/06 00:49:42;;;;;;;18.33;9.20;;;;;;;-145.18;100.00;60484.78;5029085;28;20041;-68
2023/04/06 00:52:07;;;;;;;15.27;9.43;;;;;;;-145.18;100.00;60484.78;5025780;28;20080;-68
2023/04/06 00:54:33;;;;;;;16.23;8.90;;;;;;;-145.18;100.00;60484.78;5034195;28;20477;-69
2023/04/06 00:56:59;;;;;;;15.10;8.63;;;;;;;-145.18;100.00;60484.78;5016636;28;20034;-68
2023/04/06 00:59:26;;;;;;;16.90;8.70;;;;;;;-145.18;100.00;60484.78;5014445;28;20451;-68
2023/04/06 01:02:10;;;;;;;16.63;8.73;;;;;;;-145.18;100.00;60484.78;5021887;23;20106;-68
2023/04/06 01:04:35;;;;;;;17.33;8.70;;;;;;;-145.18;100.00;60484.78;5042214;28;20640;-66
2023/04/06 01:07:01;;;;;;;16.00;9.33;;;;;;;-145.18;100.00;60484.78;5038784;28;20029;-66
2023/04/06 01:09:30;;;;;;;19.57;10.43;;;;;;;-145.18;100.00;60484.78;5038323;28;20425;-66
2023/04/06 01:11:57;;;;;;;18.63;9.43;;;;;;;-145.18;100.00;60484.78;5033953;28;20057;-66
2023/04/06 01:14:23;;;;;;;21.20;10.60;;;;;;;-145.18;100.00;60484.78;5045175;28;20029;-66
2023/04/06 01:16:49;;;;;;;17.77;9.47;;;;;;;-145.18;100.00;60484.78;5053875;28;20271;-67
2023/04/06 01:19:14;;;;;;;16.13;8.97;;;;;;;-145.18;100.00;60484.78;5053244;28;20025;-67
2023/04/06 01:21:41;;;;;;;16.60;9.20;;;;;;;-145.18;100.00;60484.78;5039895;28;20417;-67
2023/04/06 01:24:08;;;;;;;19.50;9.43;;;;;;;-145.18;100.00;60484.78;5053126;28;20037;-67
2023/04/06 01:26:34;;;;;;;16.57;8.90;;;;;;;-145.18;100.00;60484.78;5053545;28;20044;-66
2023/04/06 01:29:00;;;;;;;16.07;9.10;;;;;;;-145.18;100.00;60484.78;5053274;28;20275;-65
2023/04/06 01:31:26;;;;;;;18.43;9.37;;;;;;;-145.18;100.00;60484.78;5052803;28;20266;-67
2023/04/06 01:33:52;;;;;;;15.00;8.80;;;;;;;-145.18;100.00;60484.78;5036643;28;20056;-66
2023/04/06 01:36:18;;;;;;;15.10;8.73;;;;;;;-145.18;100.00;60484.78;5052982;28;20032;-66
2023/04/06 01:38:43;;;;;;;15.47;8.47;;;;;;;-145.18;100.00;60484.78;5053194;28;20036;-66
2023/04/06 01:41:09;;;;;;;14.60;8.40;;;;;;;-145.18;100.00;60484.78;5052861;28;20378;-66
2023/04/06 01:43:35;;;;;;;15.77;8.50;;;;;;;-145.18;100.00;60484.78;5053055;28;20029;-66
2023/04/06 01:46:00;;;;;;;17.37;8.60;;;;;;;-145.18;100.00;60484.78;5046541;28;20028;-66
2023/04/06 01:48:27;;;;;;;15.90;9.00;;;;;;;-145.18;100.00;60484.78;5053101;28;20068;-66
2023/04/06 01:50:53;;;;;;;18.47;8.80;;;;;;;-145.18;100.00;60484.78;5049730;28;20029;-66
2023/04/06 01:53:18;;;;;;;17.40;8.70;;;;;;;-145.18;100.00;60484.78;5042984;28;20272;-66
2023/04/06 01:55:44;;;;;;;17.20;8.90;;;;;;;-145.18;100.00;60484.78;5048289;28;20432;-66
2023/04/06 01:58:10;;;;;;;16.40;8.47;;;;;;;-145.18;100.00;60484.78;5047502;28;20057;-66
2023/04/06 02:00:35;;;;;;;18.97;8.90;;;;;;;-145.18;100.00;60484.78;5052370;28;20052;-66
2023/04/06 02:03:01;;;;;;;15.63;8.60;;;;;;;-145.18;100.00;60484.78;5052891;28;20032;-66
2023/04/06 02:05:28;;;;;;;14.20;8.10;;;;;;;-145.18;100.00;60484.78;5049714;28;20125;-66
2023/04/06 02:07:53;;;;;;;18.90;9.50;;;;;;;-145.18;100.00;60484.78;5048255;28;20439;-66
2023/04/06 02:10:19;;;;;;;16.27;9.00;;;;;;;-145.18;100.00;60484.78;5047121;28;20032;-66
2023/04/06 02:12:44;;;;;;;17.00;9.23;;;;;;;-145.18;100.00;60484.78;5052526;28;20033;-66
2023/04/06 02:15:10;;;;;;;15.60;8.73;;;;;;;-145.18;100.00;60484.78;5052479;28;20481;-66
2023/04/06 02:17:36;;;;;;;15.23;8.53;;;;;;;-145.18;100.00;60484.78;5052827;28;20393;-66
2023/04/06 02:20:01;;;;;;;15.70;9.10;;;;;;;-145.18;100.00;60484.78;5052624;28;20044;-66
2023/04/06 02:22:26;;;;;;;16.23;9.13;;;;;;;-145.18;100.00;60484.78;5052410;28;20076;-66
2023/04/06 02:24:52;;;;;;;15.93;8.40;;;;;;;-145.18;100.00;60484.78;5052699;28;20025;-66
2023/04/06 02:27:17;;;;;;;17.00;9.37;;;;;;;-145.18;100.00;60484.78;5052286;28;20035;-66
2023/04/06 02:29:43;;;;;;;17.03;9.53;;;;;;;-145.18;100.00;60484.78;5052486;28;20032;-66
2023/04/06 02:32:08;;;;;;;18.43;9.37;;;;;;;-145.18;100.00;60484.78;5052747;28;20056;-66
2023/04/06 02:34:34;;;;;;;17.17;9.87;;;;;;;-145.18;100.00;60484.78;5054982;28;20055;-66
2023/04/06 02:36:59;;;;;;;15.37;8.70;;;;;;;-145.18;100.00;60484.78;5056833;28;20420;-66
2023/04/06 02:39:25;;;;;;;18.20;8.90;;;;;;;-145.18;100.00;60484.78;5056508;28;20075;-67
2023/04/06 02:41:50;;;;;;;15.80;8.57;;;;;;;-145.18;100.00;60484.78;5056404;28;20036;-66
2023/04/06 02:44:16;;;;;;;15.53;9.43;;;;;;;-145.18;100.00;60484.78;5053946;28;20036;-67
2023/04/06 02:46:41;;;;;;;16.67;9.53;;;;;;;-145.18;100.00;60484.78;5056080;28;20040;-66
2023/04/06 02:49:07;;;;;;;16.33;9.20;;;;;;;-145.18;100.00;60484.78;5055173;28;20028;-67
2023/04/06 02:51:33;;;;;;;16.83;9.30;;;;;;;-145.18;100.00;60484.78;5044925;28;20025;-70
2023/04/06 02:53:59;;;;;;;15.40;9.00;;;;;;;-145.18;100.00;60484.78;5056298;28;20098;-70
2023/04/06 02:56:24;;;;;;;16.33;9.00;;;;;;;-145.18;100.00;60484.78;5055041;28;20040;-66
2023/04/06 02:58:50;;;;;;;16.00;8.87;;;;;;;-145.18;100.00;60484.78;5056099;28;20040;-66
2023/04/06 03:01:16;;;;;;;18.53;9.90;;;;;;;-145.18;100.00;60484.78;5055926;28;20452;-67
2023/04/06 03:03:41;;;;;;;17.87;8.87;;;;;;;-145.18;100.00;60484.78;5056152;28;20093;-66
2023/04/06 03:06:07;;;;;;;14.97;9.00;;;;;;;-145.18;100.00;60484.78;5056310;28;20025;-66
2023/04/06 03:08:32;;;;;;;17.47;9.40;;;;;;;-145.18;100.00;60484.78;5049896;28;20029;-66
2023/04/06 03:10:58;;;;;;;18.90;9.30;;;;;;;-145.18;100.00;60484.78;5047591;28;20055;-66
2023/04/06 03:13:23;;;;;;;19.93;9.80;;;;;;;-145.18;100.00;60484.78;5042012;28;20036;-67
2023/04/06 03:15:49;;;;;;;18.33;9.87;;;;;;;-145.18;100.00;60484.78;5055564;28;20119;-66
2023/04/06 03:18:14;;;;;;;17.47;9.90;;;;;;;-145.18;100.00;60484.78;5055749;28;20032;-66
2023/04/06 03:20:40;;;;;;;16.27;9.20;;;;;;;-145.18;100.00;60484.78;5053864;28;20037;-66
2023/04/06 03:23:06;;;;;;;15.73;9.60;;;;;;;-145.18;100.00;60484.78;5055410;28;20025;-66
2023/04/06 03:25:31;;;;;;;17.80;9.93;;;;;;;-145.18;100.00;60484.78;5055541;28;20120;-66
2023/04/06 03:27:57;;;;;;;14.93;9.30;;;;;;;-145.18;100.00;60484.78;5055668;28;20037;-67
2023/04/06 03:30:22;;;;;;;17.50;9.90;;;;;;;-145.18;100.00;60484.78;5055511;28;20048;-67
2023/04/06 03:32:48;;;;;;;17.63;9.80;;;;;;;-145.18;100.00;60484.78;5053351;28;20427;-67
2023/04/06 03:35:13;;;;;;;16.47;10.10;;;;;;;-145.18;100.00;60484.78;5051374;28;20059;-67
2023/04/06 03:37:39;;;;;;;19.17;10.40;;;;;;;-145.18;100.00;60484.78;5052608;28;20033;-67
2023/04/06 03:40:05;;;;;;;19.03;9.97;;;;;;;-145.18;100.00;60484.78;5053820;28;20067;-67
2023/04/06 03:42:32;;;;;;;19.13;10.63;;;;;;;-145.18;100.00;60484.78;5052074;28;20032;-67
2023/04/06 03:44:58;;;;;;;21.33;9.90;;;;;;;-145.18;100.00;60484.78;5048423;28;20032;-66
2023/04/06 03:47:23;;;;;;;22.00;10.97;;;;;;;-145.18;100.00;60484.78;5054811;28;20025;-67
2023/04/06 03:49:49;;;;;;;23.50;10.97;;;;;;;-145.18;100.00;60484.78;5052395;28;20024;-67
2023/04/06 03:52:14;;;;;;;21.80;11.10;;;;;;;-145.18;100.00;60484.78;5037590;28;20083;-67
2023/04/06 03:54:40;;;;;;;19.63;11.07;;;;;;;-145.18;100.00;60484.78;5049952;28;20060;-67
2023/04/06 03:57:05;;;;;;;20.30;10.70;;;;;;;-145.18;100.00;60484.78;5054838;28;20066;-67
2023/04/06 03:59:31;;;;;;;20.77;11.00;;;;;;;-145.18;100.00;60484.78;5050581;28;20100;-66
2023/04/06 04:01:56;;;;;;;18.90;11.00;;;;;;;-145.18;100.00;60484.78;5054160;28;20028;-66
2023/04/06 04:04:22;;;;;;;20.20;11.20;;;;;;;-145.18;100.00;60484.78;5055072;28;20031;-67
2023/04/06 04:06:47;;;;;;;19.00;10.37;;;;;;;-145.18;100.00;60484.78;5055303;28;20469;-67
2023/04/06 04:09:13;;;;;;;16.97;9.83;;;;;;;-145.18;100.00;60484.78;5050299;28;20028;-67
2023/04/06 04:11:38;;;;;;;17.87;9.60;;;;;;;-145.18;100.00;60484.78;5054684;28;20099;-66
2023/04/06 04:14:04;;;;;;;18.10;10.07;;;;;;;-145.18;100.00;60484.78;5054479;28;20056;-67
2023/04/06 04:16:29;;;;;;;15.00;8.87;;;;;;;-145.18;100.00;60484.78;5044419;28;20041;-67
2023/04/06 04:18:55;;;;;;;18.03;9.27;;;;;;;-145.18;100.00;60484.78;5054730;28;20029;-67
2023/04/06 04:21:20;;;;;;;15.03;8.40;;;;;;;-145.18;100.00;60484.78;5054609;28;20033;-67
2023/04/06 04:23:46;;;;;;;14.47;8.63;;;;;;;-145.18;100.00;60484.78;5054663;28;20032;-67
2023/04/06 04:26:11;;;;;;;14.80;8.17;;;;;;;-145.18;100.00;60484.78;5054793;28;20029;-68
2023/04/06 04:28:37;;;;;;;15.00;8.80;;;;;;;-145.18;100.00;60484.78;5054368;28;20477;-67
2023/04/06 04:31:02;;;;;;;16.67;9.93;;;;;;;-145.18;100.00;60484.78;5054103;28;20511;-67
2023/04/06 04:33:28;;;;;;;16.53;9.33;;;;;;;-145.18;100.00;60484.78;5053721;28;20069;-67
2023/04/06 04:35:53;;;;;;;16.17;8.80;;;;;;;-145.18;100.00;60484.78;5053872;28;20469;-67
2023/04/06 04:38:19;;;;;;;15.93;8.83;;;;;;;-145.18;100.00;60484.78;5054433;28;20025;-67
2023/04/06 04:40:45;;;;;;;14.87;8.77;;;;;;;-145.18;100.00;60484.78;5054224;28;20037;-67
2023/04/06 04:43:10;;;;;;;15.93;9.33;;;;;;;-145.18;100.00;60484.78;5054093;28;20044;-68
2023/04/06 04:45:36;;;;;;;18.57;9.43;;;;;;;-145.18;100.00;60484.78;5049038;28;20064;-69
2023/04/06 04:48:01;;;;;;;16.47;8.80;;;;;;;-145.18;100.00;60484.78;5053171;28;20105;-67
2023/04/06 04:50:27;;;;;;;14.87;8.60;;;;;;;-145.18;100.00;60484.78;5047890;28;20154;-68
2023/04/06 04:52:52;;;;;;;14.90;8.57;;;;;;;-145.18;100.00;60484.78;5051839;28;20424;-67
2023/04/06 04:55:17;;;;;;;17.80;8.67;;;;;;;-145.18;100.00;60484.78;5052632;28;20045;-67
2023/04/06 04:57:43;;;;;;;14.97;8.80;;;;;;;-145.18;100.00;60484.78;5052800;28;20415;-67
2023/04/06 05:00:09;;;;;;;16.80;8.73;;;;;;;-145.18;100.00;60484.78;5053097;28;20037;-69
2023/04/06 05:02:35;;;;;;;17.47;10.30;;;;;;;-145.18;100.00;60484.78;5052741;28;20033;-67
2023/04/06 05:05:00;;;;;;;15.57;9.07;;;;;;;-145.18;100.00;60484.78;5053933;28;20044;-67
2023/04/06 05:07:26;;;;;;;21.90;9.03;;;;;;;-145.18;100.00;60484.78;5050232;28;20057;-69
2023/04/06 05:09:52;;;;;;;15.70;9.37;;;;;;;-145.18;100.00;60484.78;5048493;28;20043;-67
2023/04/06 05:12:18;;;;;;;14.67;8.83;;;;;;;-145.18;100.00;60484.78;5053442;28;20021;-67
2023/04/06 05:14:44;;;;;;;16.50;9.27;;;;;;;-145.18;100.00;60484.78;5052858;28;20032;-68
2023/04/06 05:17:10;;;;;;;15.40;8.67;;;;;;;-145.18;100.00;60484.78;5053203;28;20033;-68
2023/04/06 05:19:36;;;;;;;16.30;8.60;;;;;;;-145.18;100.00;60484.78;5052723;28;20381;-67
2023/04/06 05:22:01;;;;;;;15.83;8.47;;;;;;;-145.18;100.00;60484.78;5053427;28;20374;-67
2023/04/06 05:24:27;;;;;;;13.53;8.07;;;;;;;-145.18;100.00;60484.78;5053067;28;20041;-67
2023/04/06 05:26:52;;;;;;;13.67;8.53;;;;;;;-145.18;100.00;60484.78;5053704;28;20028;-67
2023/04/06 05:29:18;;;;;;;13.63;8.27;;;;;;;-145.18;100.00;60484.78;5053539;28;20029;-67
2023/04/06 05:31:44;;;;;;;13.97;7.93;;;;;;;-145.18;100.00;60484.78;5036643;28;20033;-67
2023/04/06 05:34:10;;;;;;;14.40;8.87;;;;;;;-145.18;100.00;60484.78;5033653;28;20561;-67
2023/04/06 05:36:35;;;;;;;17.63;9.03;;;;;;;-145.18;100.00;60484.78;5053133;28;20036;-68
2023/04/06 05:39:01;;;;;;;14.40;8.20;;;;;;;-145.18;100.00;60484.78;5050064;28;20021;-68
2023/04/06 05:41:26;;;;;;;15.87;8.07;;;;;;;-145.18;100.00;60484.78;5046861;28;20033;-68
2023/04/06 05:43:52;;;;;;;16.70;8.30;;;;;;;-145.18;100.00;60484.78;5035552;28;20405;-68
2023/04/06 05:46:18;;;;;;;13.23;7.47;;;;;;;-145.18;100.00;60484.78;5053380;28;20511;-68
2023/04/06 05:48:43;;;;;;;17.10;9.03;;;;;;;-145.18;100.00;60484.78;5052275;28;20033;-68
2023/04/06 05:51:09;;;;;;;14.87;9.03;;;;;;;-145.18;100.00;60484.78;5042040;28;20029;-70
2023/04/06 05:53:34;;;;;;;12.90;7.67;;;;;;;-145.18;100.00;60484.78;5053072;28;20393;-67
2023/04/06 05:56:03;;;;;;;12.67;7.53;;;;;;;-145.18;100.00;60484.78;5049122;28;20024;-68
2023/04/06 05:58:29;;;;;;;12.67;7.87;;;;;;;-145.18;100.00;60484.78;5039804;28;20155;-67
2023/04/06 06:01:01;;;;;;;12.53;7.63;;;;;;;-145.18;100.00;60484.78;5040311;28;20104;-67
2023/04/06 06:03:27;;;;;;;13.57;7.93;;;;;;;-145.18;100.00;60484.78;5045956;28;20040;-67
2023/04/06 06:05:52;;;;;;;12.97;7.23;;;;;;;-145.18;100.00;60484.78;5033643;28;20417;-68
2023/04/06 06:08:17;;;;;;;11.07;6.87;;;;;;;-145.18;100.00;60484.78;5039370;28;20033;-67
2023/04/06 06:10:43;;;;;;;13.23;7.30;;;;;;;-145.18;100.00;60484.78;5052173;28;20040;-68
2023/04/06 06:13:09;;;;;;;10.73;6.50;;;;;;;-145.18;100.00;60484.78;5043747;28;20028;-68
2023/04/06 06:15:35;;;;;;;11.60;7.10;;;;;;;-145.18;100.00;60484.78;5049617;28;20097;-68
2023/04/06 06:18:00;;;;;;;11.93;7.23;;;;;;;-145.18;100.00;60484.78;5046490;28;20033;-67
2023/04/06 06:20:26;;;;;;;11.87;7.10;;;;;;;-145.18;100.00;60484.78;5038238;28;20037;-68
2023/04/06 06:22:52;;;;;;;10.33;7.23;;;;;;;-145.18;100.00;60484.78;5047935;28;20066;-68
2023/04/06 06:25:17;;;;;;;10.53;6.70;;;;;;;-145.18;100.00;60484.78;5047888;28;20044;-68
2023/04/06 06:27:43;;;;;;;11.80;7.07;;;;;;;-145.18;100.00;60484.78;5033991;28;20048;-68
2023/04/06 06:30:09;;;;;;;10.30;6.70;;;;;;;-145.18;100.00;60484.78;5032258;28;20083;-68
2023/04/06 06:32:34;;;;;;;11.33;6.70;;;;;;;-145.18;100.00;60484.78;5034319;28;20056;-67
2023/04/06 06:35:00;;;;;;;11.37;6.47;;;;;;;-145.18;100.00;60484.78;5051649;28;20029;-68
2023/04/06 06:37:25;;;;;;;13.37;7.00;;;;;;;-145.18;100.00;60484.78;5051843;28;20204;-67
2023/04/06 06:39:51;;;;;;;12.67;7.40;;;;;;;-145.18;100.00;60484.78;5053000;28;20044;-67
2023/04/06 06:42:16;;;;;;;10.67;7.10;;;;;;;-145.18;100.00;60484.78;5052924;28;20040;-67
2023/04/06 06:44:42;;;;;;;10.17;6.20;;;;;;;-145.18;100.00;60484.78;5052591;28;20082;-67
2023/04/06 06:47:07;;;;;;;10.30;6.87;;;;;;;-145.18;100.00;60484.78;5052622;28;20078;-68
2023/04/06 06:49:33;;;;;;;10.70;6.93;;;;;;;-145.18;100.00;60484.78;5052599;28;20056;-68
2023/04/06 06:51:58;;;;;;;11.37;6.97;;;;;;;-145.18;100.00;60484.78;5052346;28;20036;-67
2023/04/06 06:54:24;;;;;;;12.43;6.83;;;;;;;-145.18;100.00;60484.78;5052592;28;20044;-68
2023/04/06 06:56:49;;;;;;;12.23;6.53;;;;;;;-145.18;100.00;60484.78;5052436;28;20087;-67
2023/04/06 06:59:16;;;;;;;11.47;6.53;;;;;;;-145.18;100.00;60484.78;5052437;28;20056;-67
2023/04/06 07:01:41;;;;;;;10.77;6.10;;;;;;;-145.18;100.00;60484.78;5052433;28;20429;-67
2023/04/06 07:04:08;;;;;;;9.93;6.43;;;;;;;-145.18;100.00;60484.78;5052522;28;20068;-67
2023/04/06 07:06:35;;;;;;;10.27;5.87;;;;;;;-145.18;100.00;60484.78;5067904;28;20045;-68
2023/04/06 07:09:01;;;;;;;11.23;6.67;;;;;;;-145.18;100.00;60484.78;5052430;28;20028;-67
2023/04/06 07:11:26;;;;;;;13.77;6.70;;;;;;;-145.18;100.00;60484.78;5052422;28;20087;-67
2023/04/06 07:13:52;;;;;;;12.73;6.13;;;;;;;-145.18;100.00;60484.78;5050627;28;20088;-67
2023/04/06 07:16:17;;;;;;;9.97;5.47;;;;;;;-145.18;100.00;60484.78;5050743;28;20521;-67
2023/04/06 07:18:42;;;;;;;10.90;6.50;;;;;;;-145.18;100.00;60484.78;5052470;28;20025;-67
2023/04/06 07:21:08;;;;;;;9.57;5.67;;;;;;;-145.18;100.00;60484.78;5055449;28;20029;-67
2023/04/06 07:23:33;;;;;;;12.00;5.90;;;;;;;-145.18;100.00;60484.78;5056025;28;20073;-67
2023/04/06 07:25:59;;;;;;;8.97;6.00;;;;;;;-145.18;100.00;60484.78;5055925;28;20036;-67
2023/04/06 07:28:24;;;;;;;10.07;6.10;;;;;;;-145.18;100.00;60484.78;5055901;28;20032;-67
2023/04/06 07:30:50;;;;;;;9.63;5.47;;;;;;;-145.18;100.00;60484.78;5055683;28;20469;-67
2023/04/06 07:33:15;;;;;;;8.87;4.87;;;;;;;-145.18;100.00;60484.78;5055367;28;20044;-67
2023/04/06 07:35:41;;;;;;;11.10;6.27;;;;;;;-145.18;100.00;60484.78;5055210;28;20458;-67
2023/04/06 07:38:06;;;;;;;9.63;4.87;;;;;;;-145.18;100.00;60484.78;5055670;28;20124;-68
2023/04/06 07:40:33;;;;;;;12.30;5.50;;;;;;;-145.18;100.00;60484.78;5048788;28;20035;-67
2023/04/06 07:42:58;;;;;;;8.50;5.77;;;;;;;-145.18;100.00;60484.78;5055198;28;20033;-67
2023/04/06 07:45:24;;;;;;;8.17;5.30;;;;;;;-145.18;100.00;60484.78;5041193;28;20055;-67
2023/04/06 07:47:49;;;;;;;11.57;6.00;;;;;;;-145.18;100.00;60484.78;5055412;28;20477;-67
2023/04/06 07:50:15;;;;;;;12.60;6.27;;;;;;;-145.18;100.00;60484.78;5055563;28;20036;-67
2023/04/06 07:52:41;;;;;;;8.90;5.67;;;;;;;-145.18;100.00;60484.78;5055469;28;20048;-68
2023/04/06 07:55:07;;;;;;;9.17;5.30;;;;;;;-145.18;100.00;60484.78;5054756;28;20037;-67
2023/04/06 07:57:33;;;;;;;10.87;5.90;;;;;;;-145.18;100.00;60484.78;5053196;28;20040;-67
2023/04/06 07:59:58;;;;;;;8.50;5.13;;;;;;;-145.18;100.00;60484.78;5055305;28;20037;-67
2023/04/06 08:02:24;;;;;;;9.03;5.47;;;;;;;-145.18;100.00;60484.78;5053462;28;20029;-68
2023/04/06 08:04:49;;;;;;;10.37;6.33;;;;;;;-145.18;100.00;60484.78;5036991;28;20493;-67
2023/04/06 08:07:15;;;;;;;10.87;6.00;;;;;;;-145.18;100.00;60484.78;5035101;28;20032;-68
2023/04/06 08:09:40;;;;;;;9.37;5.70;;;;;;;-145.18;100.00;60484.78;5035043;28;20031;-67
2023/04/06 08:12:06;;;;;;;11.23;6.20;;;;;;;-145.18;100.00;60484.78;5035320;28;20037;-67
2023/04/06 08:14:31;;;;;;;9.00;5.77;;;;;;;-145.18;100.00;60484.78;5034974;28;20053;-67
2023/04/06 08:16:57;;;;;;;9.00;5.97;;;;;;;-145.18;100.00;60484.78;5033745;28;20022;-67
2023/04/06 08:19:22;;;;;;;9.80;5.87;;;;;;;-145.18;100.00;60484.78;5034992;28;20030;-67
2023/04/06 08:21:48;;;;;;;10.63;5.83;;;;;;;-145.18;100.00;60484.78;5034875;28;20037;-67
2023/04/06 08:24:14;;;;;;;9.47;5.80;;;;;;;-145.18;100.00;60484.78;5035056;28;20030;-68
2023/04/06 08:26:40;;;;;;;11.37;6.63;;;;;;;-145.18;100.00;60484.78;5034906;28;20025;-69
2023/04/06 08:29:07;;;;;;;8.37;4.97;;;;;;;-145.18;100.00;60484.78;5038560;28;20021;-67
2023/04/06 08:31:33;;;;;;;9.83;5.97;;;;;;;-145.18;100.00;60484.78;5053985;28;20546;-67
2023/04/06 08:33:59;;;;;;;9.03;5.80;;;;;;;-145.18;100.00;60484.78;5054616;28;20024;-68
2023/04/06 08:36:25;;;;;;;9.57;6.30;;;;;;;-145.18;100.00;60484.78;5054555;28;20082;-68
2023/04/06 08:38:50;;;;;;;11.67;6.07;;;;;;;-145.18;100.00;60484.78;5054462;28;20025;-67
2023/04/06 08:41:20;;;;;;;10.07;6.27;;;;;;;-145.18;100.00;60484.78;5054612;28;20036;-70
2023/04/06 08:43:56;;;;;;;11.00;6.07;;;;;;;-145.18;100.00;60484.78;5054829;28;20405;-70
2023/04/06 08:46:23;;;;;;;9.10;6.28;;;;;;;-145.18;100.00;60484.78;5054666;28;20427;-70
2023/04/06 08:48:49;;;;;;;11.13;6.53;;;;;;;-145.18;100.00;60484.78;5054498;28;20500;-70
2023/04/06 08:51:15;;;;;;;11.48;6.22;;;;;;;-145.18;100.00;60484.78;5054482;28;20033;-70
2023/04/06 08:53:41;;;;;;;10.38;6.60;;;;;;;-145.18;100.00;60484.78;5054294;28;20029;-70
2023/04/06 08:56:09;;;;;;;12.63;6.30;;;;;;;-145.18;100.00;60484.78;5054224;28;20033;-70
2023/04/06 08:58:40;;;;;;;10.68;6.90;;;;;;;-145.18;100.00;60484.78;5054233;28;20033;-70
2023/04/06 09:01:11;;;;;;;11.93;6.38;;;;;;;-145.18;100.00;60484.78;5054075;28;20064;-70
2023/04/06 09:03:41;;;;;;;9.98;6.35;;;;;;;-145.18;100.00;60484.78;5053823;28;20041;-70
2023/04/06 09:06:07;;;;;;;10.63;6.20;;;;;;;-145.18;100.00;60484.78;5054092;28;20083;-70
2023/04/06 09:08:34;;;;;;;10.73;6.07;;;;;;;-145.18;100.00;60484.78;5040354;28;20393;-70
2023/04/06 09:11:03;;;;;;;10.50;6.18;;;;;;;-145.18;100.00;60484.78;5034243;28;20029;-70
2023/04/06 09:13:29;;;;;;;10.23;6.55;;;;;;;-145.18;100.00;60484.78;5034111;28;20032;-70
2023/04/06 09:16:05;;;;;;;9.27;5.85;;;;;;;-145.18;100.00;60484.78;5033779;28;20038;-70
2023/04/06 09:18:32;;;;;;;12.45;6.80;;;;;;;-145.18;100.00;60484.78;5033885;28;20021;-70
2023/04/06 09:21:02;;;;;;;11.35;6.43;;;;;;;-145.18;100.00;60484.78;5033831;28;20045;-70
2023/04/06 09:23:28;;;;;;;10.85;6.60;;;;;;;-145.18;100.00;60484.78;5033748;28;20045;-70
2023/04/06 09:26:11;;;;;;;9.88;6.75;;;;;;;-145.18;100.00;60484.78;5033173;28;20029;-71
2023/04/06 09:28:54;;;;;;;11.75;6.60;;;;;;;-145.18;100.00;60484.78;5052811;28;20037;-70
2023/04/06 09:31:24;;;;;;;12.75;6.93;;;;;;;-145.18;100.00;60484.78;5033626;28;20073;-71
2023/04/06 09:33:51;;;;;;;10.52;6.28;;;;;;;-145.18;100.00;60484.78;5033837;28;20063;-71
2023/04/06 09:36:17;;;;;;;10.65;6.72;;;;;;;-145.18;100.00;60484.78;5033452;28;20033;-70
2023/04/06 09:38:57;;;;;;;11.60;6.70;;;;;;;-145.18;100.00;60484.78;5034793;28;20041;-71
2023/04/06 09:41:24;;;;;;;9.68;6.45;;;;;;;-145.18;100.00;60484.78;5036208;28;20025;-71
2023/04/06 09:44:10;;;;;;;10.00;6.35;;;;;;;-145.18;100.00;60484.78;5041182;28;20025;-70
2023/04/06 09:46:39;;;;;;;10.50;6.18;;;;;;;-145.18;100.00;60484.78;5053592;28;20477;-71
2023/04/06 09:49:06;;;;;;;9.57;6.25;;;;;;;-145.18;100.00;60484.78;5053618;28;20031;-70
2023/04/06 09:51:37;;;;;;;11.98;7.68;;;;;;;-145.18;100.00;60484.78;5045262;28;20025;-70
2023/04/06 09:54:04;;;;;;;11.53;7.67;;;;;;;-145.18;100.00;60484.78;5033447;28;20127;-70
2023/04/06 09:56:37;;;;;;;11.20;7.60;;;;;;;-145.18;100.00;60484.78;5049196;28;20298;-70
2023/04/06 09:59:13;;;;;;;11.73;7.45;;;;;;;-145.18;100.00;60484.78;5053101;28;20029;-70
2023/04/06 10:01:39;;;;;;;13.48;7.90;;;;;;;-145.18;100.00;60484.78;5052999;28;20025;-70
2023/04/06 10:04:40;;;;;;;10.23;7.03;;;;;;;-145.18;100.00;60484.78;5053053;28;20025;-70
2023/04/06 10:07:07;;;;;;;15.70;8.18;;;;;;;-145.18;100.00;60484.78;5050339;28;20067;-70
2023/04/06 10:09:36;;;;;;;13.32;7.68;;;;;;;-145.18;100.00;60484.78;5052874;28;20063;-70
2023/04/06 10:12:03;;;;;;;13.73;8.60;;;;;;;-145.18;100.00;60484.78;5052994;28;20481;-70
2023/04/06 10:14:31;;;;;;;12.35;8.43;;;;;;;-145.18;100.00;60484.78;5053042;28;20025;-70
2023/04/06 10:16:57;;;;;;;12.93;8.32;;;;;;;-145.18;100.00;60484.78;5052918;28;20040;-70
2023/04/06 10:19:27;;;;;;;13.70;8.63;;;;;;;-145.18;100.00;60484.78;5052982;28;20477;-70
2023/04/06 10:21:57;;;;;;;12.45;7.70;;;;;;;-145.18;100.00;60484.78;5052842;28;20053;-70
2023/04/06 10:24:23;;;;;;;12.82;9.10;;;;;;;-145.18;100.00;60484.78;5052797;28;20044;-70
2023/04/06 10:27:01;;;;;;;12.35;8.00;;;;;;;-145.18;100.00;60484.78;5051512;28;20032;-70
2023/04/06 10:29:27;;;;;;;14.05;7.72;;;;;;;-145.18;100.00;60484.78;5052726;28;20070;-70
2023/04/06 10:31:52;;;;;;;12.73;7.85;;;;;;;-145.18;100.00;60484.78;5052980;28;20029;-70
2023/04/06 10:34:18;;;;;;;13.73;9.15;;;;;;;-145.18;100.00;60484.78;5052928;28;20112;-70
2023/04/06 10:36:43;;;;;;;15.48;9.45;;;;;;;-145.18;100.00;60484.78;5052889;28;20033;-70
2023/04/06 10:39:09;;;;;;;14.23;8.43;;;;;;;-145.18;100.00;60484.78;5052611;28;20021;-70
2023/04/06 10:41:40;;;;;;;15.13;8.88;;;;;;;-145.18;100.00;60484.78;5052732;28;20029;-70
2023/04/06 10:44:06;;;;;;;11.25;6.82;;;;;;;-145.18;100.00;60484.78;5052777;28;20112;-70
2023/04/06 10:46:33;;;;;;;15.27;8.98;;;;;;;-145.18;100.00;60484.78;5052657;28;20497;-70
2023/04/06 10:49:11;;;;;;;14.82;9.27;;;;;;;-145.18;100.00;60484.78;5052635;28;20029;-69
2023/04/06 10:51:38;;;;;;;16.02;8.82;;;;;;;-145.18;100.00;60484.78;5052494;28;20058;-70
2023/04/06 10:54:05;;;;;;;15.38;9.98;;;;;;;-145.18;100.00;60484.78;5052881;28;20104;-70
2023/04/06 10:56:34;;;;;;;14.53;8.30;;;;;;;-145.18;100.00;60484.78;5056352;28;20040;-70
2023/04/06 10:58:59;;;;;;;14.50;9.47;;;;;;;-145.18;100.00;60484.78;5056651;28;20040;-70